createdAt,value
2023-02-09T00:01:04.036Z,18.57
2023-02-09T00:03:33.572Z,17.73
2023-02-09T00:06:02.597Z,16.57
2023-02-09T00:08:31.575Z,16.87
2023-02-09T00:11:00.027Z,17.60
2023-02-09T00:13:27.913Z,18.97
2023-02-09T00:15:58.084Z,17.33
2023-02-09T00:18:28.466Z,20.37
2023-02-09T00:21:00.337Z,19.63
2023-02-09T00:23:29.297Z,17.73
2023-02-09T00:26:00.882Z,16.23
2023-02-09T00:28:30.065Z,18.10
2023-02-09T00:30:58.495Z,15.83
2023-02-09T00:33:26.984Z,18.83
2023-02-09T00:35:55.058Z,17.33
2023-02-09T00:38:24.623Z,16.23
2023-02-09T00:40:53.454Z,16.53
2023-02-09T00:43:22.385Z,17.43
2023-02-09T00:45:50.705Z,16.67
2023-02-09T00:48:18.859Z,15.87
2023-02-09T00:50:47.460Z,17.77
2023-02-09T00:53:16.716Z,16.67
2023-02-09T00:55:46.375Z,16.87
2023-02-09T00:58:14.654Z,16.87
2023-02-09T01:00:43.248Z,20.37
2023-02-09T01:03:12.008Z,16.40
2023-02-09T01:05:40.846Z,17.37
2023-02-09T01:08:09.867Z,16.60
2023-02-09T01:10:38.840Z,18.33
2023-02-09T01:13:09.625Z,15.60
2023-02-09T01:15:41.193Z,16.00
2023-02-09T01:18:09.264Z,18.23
2023-02-09T01:20:37.720Z,16.43
2023-02-09T01:23:05.947Z,18.20
2023-02-09T01:25:34.069Z,17.27
2023-02-09T01:28:02.169Z,14.13
2023-02-09T01:30:35.643Z,17.17
2023-02-09T01:33:22.744Z,17.00
2023-02-09T01:35:50.853Z,15.17
2023-02-09T01:38:19.399Z,14.83
2023-02-09T01:40:48.995Z,14.83
2023-02-09T01:43:17.778Z,13.17
2023-02-09T01:45:50.130Z,12.57
2023-02-09T01:48:21.124Z,14.10
2023-02-09T01:50:53.545Z,22.63
2023-02-09T01:53:23.172Z,13.37
2023-02-09T01:55:56.625Z,14.93
2023-02-09T01:58:25.950Z,14.60
2023-02-09T02:01:14.792Z,16.50
2023-02-09T02:03:43.262Z,11.93
2023-02-09T02:06:16.192Z,12.90
2023-02-09T02:08:49.064Z,15.80
2023-02-09T02:11:37.511Z,11.13
2023-02-09T02:14:29.613Z,13.20
2023-02-09T02:20:24.946Z,13.13
2023-02-09T02:23:01.287Z,14.77
2023-02-09T02:26:01.843Z,12.87
2023-02-09T02:28:42.952Z,11.50
2023-02-09T02:31:45.522Z,13.30
2023-02-09T02:34:20.531Z,11.20
2023-02-09T02:37:00.801Z,15.20
2023-02-09T02:39:34.773Z,10.10
2023-02-09T02:42:27.069Z,10.27
2023-02-09T02:45:24.104Z,9.40
2023-02-09T02:48:01.860Z,10.63
2023-02-09T02:50:33.880Z,10.13
2023-02-09T02:53:05.452Z,9.80
2023-02-09T02:55:36.539Z,12.10
2023-02-09T02:58:09.827Z,12.40
2023-02-09T03:00:43.845Z,8.33
2023-02-09T03:03:17.084Z,10.63
2023-02-09T03:05:46.139Z,10.17
2023-02-09T03:08:14.151Z,9.60
2023-02-09T03:10:43.393Z,9.73
2023-02-09T03:13:25.933Z,8.50
2023-02-09T03:16:07.715Z,10.43
2023-02-09T03:18:43.374Z,9.93
2023-02-09T03:21:17.744Z,12.07
2023-02-09T03:23:50.262Z,9.03
2023-02-09T03:26:23.635Z,10.20
2023-02-09T03:28:55.859Z,10.73
2023-02-09T03:31:26.062Z,8.10
2023-02-09T03:33:57.993Z,9.70
2023-02-09T03:36:32.488Z,10.87
2023-02-09T03:39:01.860Z,8.70
2023-02-09T03:41:30.834Z,9.73
2023-02-09T03:44:29.904Z,9.70
2023-02-09T03:47:00.974Z,10.50
2023-02-09T03:49:34.809Z,9.50
2023-02-09T03:52:03.615Z,10.23
2023-02-09T03:54:33.558Z,11.57
2023-02-09T03:57:02.972Z,11.03
2023-02-09T03:59:50.716Z,10.50
2023-02-09T04:02:18.953Z,9.80
2023-02-09T04:05:08.190Z,8.63
2023-02-09T04:07:36.508Z,10.13
2023-02-09T04:10:05.340Z,12.17
2023-02-09T04:12:33.463Z,9.90
2023-02-09T04:15:01.566Z,9.40
2023-02-09T04:17:30.637Z,10.70
2023-02-09T04:19:58.812Z,12.17
2023-02-09T04:22:28.242Z,10.70
2023-02-09T04:24:56.378Z,10.03
2023-02-09T04:27:24.355Z,9.70
2023-02-09T04:29:52.478Z,9.90
2023-02-09T04:32:20.893Z,13.53
2023-02-09T04:34:48.924Z,11.00
2023-02-09T04:37:17.091Z,10.77
2023-02-09T04:39:46.511Z,8.87
2023-02-09T04:42:14.583Z,11.27
2023-02-09T04:44:42.692Z,8.53
2023-02-09T04:47:11.727Z,10.90
2023-02-09T04:49:40.625Z,10.67
2023-02-09T04:52:08.642Z,10.87
2023-02-09T04:54:36.877Z,10.57
2023-02-09T04:57:23.787Z,8.93
2023-02-09T04:59:51.909Z,9.43
2023-02-09T05:02:20.815Z,9.60
2023-02-09T05:04:49.037Z,11.43
2023-02-09T05:07:17.230Z,10.27
2023-02-09T05:09:45.282Z,8.57
2023-02-09T05:12:14.724Z,9.33
2023-02-09T05:14:42.739Z,10.90
2023-02-09T05:17:10.799Z,8.87
2023-02-09T05:19:38.910Z,11.00
2023-02-09T05:22:07.126Z,11.63
2023-02-09T05:24:35.179Z,11.80
2023-02-09T05:27:03.363Z,11.57
2023-02-09T05:29:32.790Z,9.07
2023-02-09T05:32:00.935Z,9.90
2023-02-09T05:34:29.121Z,10.40
2023-02-09T05:36:57.150Z,12.63
2023-02-09T05:39:25.222Z,10.30
2023-02-09T05:45:37.170Z,12.33
2023-02-09T05:48:30.623Z,9.63
2023-02-09T05:51:06.959Z,11.40
2023-02-09T05:53:44.860Z,11.93
2023-02-09T05:56:35.553Z,10.23
2023-02-09T06:02:50.359Z,10.77
2023-02-09T06:05:21.450Z,10.90
2023-02-09T06:07:51.185Z,12.27
2023-02-09T06:10:40.433Z,9.93
2023-02-09T06:13:56.937Z,12.67
2023-02-09T06:16:25.708Z,10.17
2023-02-09T06:18:58.295Z,12.87
2023-02-09T06:21:30.474Z,12.57
2023-02-09T06:24:00.165Z,14.63
2023-02-09T06:29:23.104Z,13.43
2023-02-09T06:35:33.631Z,12.40
2023-02-09T06:38:02.117Z,12.47
2023-02-09T06:40:30.585Z,11.90
2023-02-09T06:42:59.092Z,12.93
2023-02-09T06:45:28.605Z,13.33
2023-02-09T06:48:21.700Z,13.70
2023-02-09T06:54:04.009Z,13.33
2023-02-09T06:56:35.522Z,13.00
2023-02-09T06:59:03.685Z,11.77
2023-02-09T07:01:34.418Z,12.37
2023-02-09T07:04:22.403Z,16.67
2023-02-09T07:07:16.517Z,11.20
2023-02-09T07:09:44.993Z,16.27
2023-02-09T07:12:13.573Z,12.03
2023-02-09T07:14:41.647Z,12.10
2023-02-09T07:17:28.936Z,14.03
2023-02-09T07:20:17.189Z,13.60
2023-02-09T07:23:08.560Z,14.87
2023-02-09T07:28:25.773Z,12.83
2023-02-09T07:30:57.659Z,14.23
2023-02-09T07:33:32.991Z,16.83
2023-02-09T07:36:23.266Z,15.23
2023-02-09T07:41:42.790Z,15.57
2023-02-09T07:44:13.545Z,16.17
2023-02-09T07:46:45.112Z,14.80
2023-02-09T07:49:41.093Z,14.70
2023-02-09T07:52:29.127Z,15.27
2023-02-09T07:55:30.024Z,15.50
2023-02-09T08:01:45.995Z,14.50
2023-02-09T08:07:21.905Z,14.73
2023-02-09T08:13:25.445Z,14.30
2023-02-09T08:16:03.522Z,13.03
2023-02-09T08:18:56.109Z,14.37
2023-02-09T08:21:29.522Z,14.77
2023-02-09T08:24:00.675Z,15.63
2023-02-09T08:26:49.370Z,15.43
2023-02-09T08:29:47.458Z,16.40
2023-02-09T08:32:17.010Z,14.30
2023-02-09T08:34:46.356Z,17.20
2023-02-09T08:37:17.525Z,14.47
2023-02-09T08:40:08.798Z,15.20
2023-02-09T08:42:37.400Z,19.83
2023-02-09T08:45:07.871Z,17.40
2023-02-09T08:48:01.805Z,14.63
2023-02-09T08:50:30.523Z,14.93
2023-02-09T08:53:03.187Z,15.73
2023-02-09T08:55:55.876Z,12.63
2023-02-09T08:58:29.302Z,15.60
2023-02-09T09:01:03.372Z,12.57
2023-02-09T09:06:30.789Z,14.17
2023-02-09T09:08:58.913Z,16.10
2023-02-09T09:11:29.991Z,14.23
2023-02-09T09:13:59.914Z,12.67
2023-02-09T09:19:40.677Z,14.07
2023-02-09T09:22:29.617Z,14.40
2023-02-09T09:25:00.145Z,12.77
2023-02-09T09:28:17.344Z,15.77
2023-02-09T09:30:45.537Z,15.57
2023-02-09T09:36:07.589Z,17.20
2023-02-09T09:38:42.331Z,15.33
2023-02-09T09:41:40.005Z,13.87
2023-02-09T09:44:17.894Z,16.23
2023-02-09T09:46:51.464Z,14.27
2023-02-09T09:56:01.008Z,12.40
2023-02-09T09:58:51.816Z,14.97
2023-02-09T10:01:25.017Z,16.27
2023-02-09T10:04:21.919Z,15.80
2023-02-09T10:07:04.834Z,13.67
2023-02-09T10:09:39.933Z,15.40
2023-02-09T10:12:24.309Z,14.73
2023-02-09T10:14:58.129Z,14.90
2023-02-09T10:17:44.383Z,18.00
2023-02-09T10:21:12.073Z,17.17
2023-02-09T10:23:49.594Z,16.83
2023-02-09T10:29:36.137Z,15.73
2023-02-09T10:32:13.251Z,16.40
2023-02-09T10:34:47.299Z,15.20
2023-02-09T10:37:22.335Z,15.40
2023-02-09T10:40:00.418Z,15.00
2023-02-09T10:42:31.196Z,13.37
2023-02-09T10:45:07.204Z,15.77
2023-02-09T10:47:35.093Z,15.53
2023-02-09T10:50:14.743Z,15.13
2023-02-09T10:52:54.511Z,15.10
2023-02-09T10:55:27.623Z,14.00
2023-02-09T10:58:13.181Z,15.77
2023-02-09T11:00:49.779Z,13.50
2023-02-09T11:03:19.865Z,15.50
2023-02-09T11:05:48.757Z,16.50
2023-02-09T11:08:22.845Z,14.30
2023-02-09T11:11:06.739Z,15.17
2023-02-09T11:13:35.737Z,16.60
2023-02-09T11:16:39.652Z,13.80
2023-02-09T11:19:19.552Z,16.07
2023-02-09T11:22:00.750Z,17.97
2023-02-09T11:24:58.615Z,14.77
2023-02-09T11:27:53.140Z,14.33
2023-02-09T11:30:37.128Z,18.47
2023-02-09T11:33:11.872Z,14.47
2023-02-09T11:35:48.844Z,17.60
2023-02-09T11:38:20.553Z,19.40
2023-02-09T11:40:52.926Z,14.40
2023-02-09T11:43:27.390Z,17.10
2023-02-09T11:45:59.239Z,16.40
2023-02-09T11:48:30.256Z,18.20
2023-02-09T11:51:04.309Z,14.97
2023-02-09T11:53:43.425Z,14.93
2023-02-09T11:56:14.122Z,16.37
2023-02-09T11:58:49.476Z,16.73
2023-02-09T12:01:39.047Z,15.13
2023-02-09T12:04:15.776Z,17.90
2023-02-09T12:06:47.621Z,15.33
2023-02-09T12:09:36.684Z,15.50
2023-02-09T12:12:23.216Z,15.67
2023-02-09T12:15:12.271Z,17.97
2023-02-09T12:17:47.458Z,19.10
2023-02-09T12:20:47.681Z,16.90
2023-02-09T12:23:23.526Z,14.67
2023-02-09T12:25:54.985Z,16.97
2023-02-09T12:28:45.323Z,17.60
2023-02-09T12:31:18.383Z,16.67
2023-02-09T12:34:29.564Z,16.10
2023-02-09T12:37:28.118Z,16.90
2023-02-09T12:40:22.360Z,17.17
2023-02-09T12:43:28.928Z,17.57
2023-02-09T12:46:27.341Z,19.93
2023-02-09T12:49:20.973Z,18.43
2023-02-09T12:52:13.321Z,19.27
2023-02-09T12:54:45.075Z,18.17
2023-02-09T12:57:53.082Z,15.33
2023-02-09T13:00:49.137Z,17.87
2023-02-09T13:03:22.516Z,17.00
2023-02-09T13:05:51.342Z,17.53
2023-02-09T13:08:46.005Z,16.80
2023-02-09T13:11:26.760Z,16.87
2023-02-09T13:13:57.130Z,17.13
2023-02-09T13:16:51.409Z,20.67
2023-02-09T13:19:47.631Z,19.80
2023-02-09T13:22:33.493Z,19.77
2023-02-09T13:25:09.751Z,17.20
2023-02-09T13:27:45.164Z,18.03
2023-02-09T13:30:25.159Z,19.57
2023-02-09T13:33:02.991Z,18.77
2023-02-09T13:35:37.404Z,19.03
2023-02-09T13:38:16.476Z,18.10
2023-02-09T13:40:49.439Z,18.87
2023-02-09T13:43:21.843Z,16.47
2023-02-09T13:45:51.139Z,19.57
2023-02-09T13:48:24.602Z,21.00
2023-02-09T13:50:55.549Z,19.73
2023-02-09T13:53:25.289Z,19.27
2023-02-09T13:55:54.792Z,19.90
2023-02-09T13:58:26.645Z,19.47
2023-02-09T14:00:57.575Z,22.67
2023-02-09T14:03:29.021Z,21.80
2023-02-09T14:06:02.218Z,19.07
2023-02-09T14:08:32.452Z,19.80
2023-02-09T14:11:05.939Z,22.87
2023-02-09T14:13:40.242Z,21.57
2023-02-09T14:16:08.941Z,23.37
2023-02-09T14:18:46.846Z,20.60
2023-02-09T14:21:25.116Z,23.43
2023-02-09T14:24:21.145Z,19.40
2023-02-09T14:26:53.799Z,21.43
2023-02-09T14:29:25.499Z,21.70
2023-02-09T14:31:55.322Z,25.80
2023-02-09T14:34:31.707Z,25.37
2023-02-09T14:37:03.091Z,20.80
2023-02-09T14:39:31.986Z,23.20
2023-02-09T14:42:02.846Z,22.90
2023-02-09T14:44:31.475Z,22.53
2023-02-09T14:47:00.908Z,23.17
2023-02-09T14:49:29.768Z,23.63
2023-02-09T14:52:06.996Z,23.80
2023-02-09T14:54:42.356Z,21.07
2023-02-09T14:57:13.196Z,23.67
2023-02-09T14:59:41.062Z,24.57
2023-02-09T15:02:18.078Z,23.73
2023-02-09T15:04:46.434Z,21.83
2023-02-09T15:07:19.661Z,22.57
2023-02-09T15:09:47.983Z,27.37
2023-02-09T15:12:22.771Z,25.93
2023-02-09T15:14:52.898Z,24.47
2023-02-09T15:17:23.594Z,23.47
2023-02-09T15:19:51.627Z,22.90
2023-02-09T15:22:21.841Z,24.60
2023-02-09T15:24:52.791Z,24.87
2023-02-09T15:27:35.568Z,23.87
2023-02-09T15:30:11.088Z,24.43
2023-02-09T15:32:39.005Z,24.00
2023-02-09T15:35:07.538Z,23.67
2023-02-09T15:37:39.296Z,26.83
2023-02-09T15:40:42.529Z,24.70
2023-02-09T15:43:37.454Z,26.73
2023-02-09T15:46:23.597Z,23.90
2023-02-09T15:48:51.579Z,24.67
2023-02-09T15:51:19.821Z,25.13
2023-02-09T15:53:52.090Z,27.90
2023-02-09T15:56:20.522Z,25.73
2023-02-09T15:58:51.605Z,23.77
2023-02-09T16:01:20.054Z,27.10
2023-02-09T16:03:48.997Z,25.60
2023-02-09T16:06:21.826Z,23.70
2023-02-09T16:08:53.622Z,25.00
2023-02-09T16:11:23.555Z,27.47
2023-02-09T16:13:51.660Z,24.97
2023-02-09T16:16:19.879Z,25.03
2023-02-09T16:18:48.168Z,23.87
2023-02-09T16:21:22.885Z,24.60
2023-02-09T16:23:54.837Z,24.30
2023-02-09T16:26:24.289Z,24.93
2023-02-09T16:28:53.285Z,25.07
2023-02-09T16:31:21.793Z,25.53
2023-02-09T16:33:50.465Z,28.67
2023-02-09T16:36:21.553Z,27.33
2023-02-09T16:38:49.551Z,27.27
2023-02-09T16:41:39.449Z,25.97
2023-02-09T16:44:16.364Z,28.87
2023-02-09T16:46:45.570Z,26.33
2023-02-09T16:49:29.847Z,29.60
2023-02-09T16:52:01.638Z,25.93
2023-02-09T16:54:30.691Z,27.30
2023-02-09T16:57:00.834Z,28.87
2023-02-09T16:59:28.860Z,28.40
2023-02-09T17:01:59.752Z,27.87
2023-02-09T17:04:27.762Z,29.53
2023-02-09T17:06:55.937Z,27.93
2023-02-09T17:09:23.789Z,27.60
2023-02-09T17:11:51.745Z,25.70
2023-02-09T17:14:21.026Z,28.77
2023-02-09T17:16:49.956Z,26.27
2023-02-09T17:19:47.443Z,27.90
2023-02-09T17:22:17.121Z,24.00
2023-02-09T17:24:47.000Z,27.17
2023-02-09T17:27:15.452Z,29.97
2023-02-09T17:29:44.785Z,28.13
2023-02-09T17:32:16.289Z,32.27
2023-02-09T17:34:44.210Z,28.27
2023-02-09T17:37:14.597Z,29.17
2023-02-09T17:39:42.582Z,28.37
2023-02-09T17:42:21.502Z,31.47
2023-02-09T17:44:51.729Z,28.73
2023-02-09T17:47:20.801Z,31.93
2023-02-09T17:49:48.823Z,32.20
2023-02-09T17:52:17.815Z,31.90
2023-02-09T17:54:45.790Z,30.73
2023-02-09T17:57:15.282Z,29.97
2023-02-09T17:59:43.327Z,33.90
2023-02-09T18:02:17.065Z,31.77
2023-02-09T18:04:45.116Z,33.37
2023-02-09T18:07:14.478Z,32.30
2023-02-09T18:09:42.389Z,27.40
2023-02-09T18:12:18.376Z,33.10
2023-02-09T18:14:46.394Z,32.60
2023-02-09T18:17:16.619Z,28.37
2023-02-09T18:19:44.643Z,31.43
2023-02-09T18:22:16.970Z,30.80
2023-02-09T18:24:45.367Z,30.50
2023-02-09T18:27:15.811Z,32.17
2023-02-09T18:29:43.792Z,31.30
2023-02-09T18:32:15.414Z,29.37
2023-02-09T18:34:44.716Z,33.43
2023-02-09T18:37:14.414Z,30.00
2023-02-09T18:39:46.050Z,34.73
2023-02-09T18:42:15.519Z,33.57
2023-02-09T18:44:43.418Z,29.20
2023-02-09T18:47:12.156Z,31.20
2023-02-09T18:49:40.229Z,30.70
2023-02-09T18:52:10.272Z,32.00
2023-02-09T18:54:38.240Z,29.03
2023-02-09T18:57:06.104Z,32.00
2023-02-09T18:59:34.247Z,27.47
2023-02-09T19:02:02.526Z,33.50
2023-02-09T19:04:30.530Z,29.07
2023-02-09T19:06:59.298Z,31.57
2023-02-09T19:09:28.589Z,28.37
2023-02-09T19:11:56.475Z,30.90
2023-02-09T19:14:39.721Z,30.63
2023-02-09T19:17:09.634Z,29.47
2023-02-09T19:19:38.706Z,37.43
2023-02-09T19:22:06.757Z,29.70
2023-02-09T19:24:36.093Z,29.03
2023-02-09T19:27:06.568Z,31.23
2023-02-09T19:29:34.843Z,32.43
2023-02-09T19:32:03.057Z,32.10
2023-02-09T19:34:32.376Z,32.27
2023-02-09T19:37:00.269Z,30.47
2023-02-09T19:39:28.218Z,35.37
2023-02-09T19:41:57.420Z,28.57
2023-02-09T19:44:25.347Z,32.07
2023-02-09T19:46:53.408Z,32.27
2023-02-09T19:49:21.392Z,31.43
2023-02-09T19:51:49.462Z,32.20
2023-02-09T19:54:17.635Z,34.50
2023-02-09T19:56:46.004Z,32.27
2023-02-09T19:59:16.877Z,31.43
2023-02-09T20:01:44.898Z,30.00
2023-02-09T20:04:12.841Z,34.67
2023-02-09T20:06:40.768Z,33.00
2023-02-09T20:09:08.682Z,33.80
2023-02-09T20:11:36.558Z,37.30
2023-02-09T20:14:05.316Z,32.37
2023-02-09T20:16:34.583Z,36.13
2023-02-09T20:19:02.597Z,35.63
2023-02-09T20:21:30.745Z,32.63
2023-02-09T20:23:59.148Z,38.40
2023-02-09T20:26:29.912Z,40.00
2023-02-09T20:28:58.912Z,36.43
2023-02-09T20:31:28.708Z,33.83
2023-02-09T20:33:58.047Z,34.00
2023-02-09T20:36:26.270Z,38.03
2023-02-09T20:38:54.195Z,33.43
2023-02-09T20:41:22.174Z,33.07
2023-02-09T20:44:07.875Z,35.53
2023-02-09T20:46:53.872Z,38.97
2023-02-09T20:49:25.785Z,39.87
2023-02-09T20:51:53.752Z,31.33
2023-02-09T20:54:21.759Z,33.43
2023-02-09T20:56:49.888Z,34.83
2023-02-09T20:59:18.095Z,33.60
2023-02-09T21:01:46.137Z,34.43
2023-02-09T21:04:14.029Z,33.97
2023-02-09T21:06:44.003Z,38.17
2023-02-09T21:09:14.241Z,33.97
2023-02-09T21:11:42.621Z,36.40
2023-02-09T21:14:21.676Z,35.63
2023-02-09T21:16:58.500Z,36.90
2023-02-09T21:19:26.430Z,32.07
2023-02-09T21:21:55.683Z,35.57
2023-02-09T21:24:23.792Z,38.37
2023-02-09T21:26:52.155Z,36.10
2023-02-09T21:29:20.101Z,36.90
2023-02-09T21:31:48.129Z,37.47
2023-02-09T21:34:17.163Z,36.97
2023-02-09T21:36:45.496Z,35.73
2023-02-09T21:39:14.948Z,36.37
2023-02-09T21:42:00.342Z,39.47
2023-02-09T21:44:28.286Z,34.50
2023-02-09T21:46:56.258Z,39.20
2023-02-09T21:49:24.454Z,40.40
2023-02-09T21:51:52.384Z,34.77
2023-02-09T21:54:21.604Z,40.33
2023-02-09T21:56:49.565Z,36.87
2023-02-09T21:59:17.543Z,36.47
2023-02-09T22:01:45.481Z,36.93
2023-02-09T22:04:13.375Z,38.47
2023-02-09T22:06:41.847Z,35.53
2023-02-09T22:09:09.945Z,34.87
2023-02-09T22:11:39.214Z,37.83
2023-02-09T22:14:08.252Z,37.87
2023-02-09T22:16:36.316Z,45.37
2023-02-09T22:19:04.837Z,39.80
2023-02-09T22:21:32.736Z,36.77
2023-02-09T22:24:00.738Z,41.33
2023-02-09T22:26:28.751Z,37.60
2023-02-09T22:28:58.026Z,36.37
2023-02-09T22:31:25.962Z,34.87
2023-02-09T22:33:55.149Z,33.30
2023-02-09T22:36:24.023Z,38.23
2023-02-09T22:38:52.538Z,39.13
2023-02-09T22:41:24.953Z,35.40
2023-02-09T22:43:55.174Z,37.07
2023-02-09T22:46:26.180Z,47.10
2023-02-09T22:48:55.499Z,37.17
2023-02-09T22:51:24.626Z,33.97
2023-02-09T22:53:52.537Z,38.97
2023-02-09T22:56:20.486Z,37.90
2023-02-09T22:58:48.468Z,36.00
2023-02-09T23:01:17.681Z,33.37
2023-02-09T23:03:47.039Z,33.77
2023-02-09T23:06:17.743Z,36.43
2023-02-09T23:08:46.161Z,34.57
2023-02-09T23:11:15.994Z,34.73
2023-02-09T23:13:44.680Z,38.47
2023-02-09T23:16:14.925Z,33.20
2023-02-09T23:18:48.975Z,34.37
2023-02-09T23:21:18.345Z,36.90
2023-02-09T23:23:46.249Z,35.60
2023-02-09T23:26:16.115Z,35.50
2023-02-09T23:28:44.020Z,37.50
2023-02-09T23:31:14.430Z,35.50
2023-02-09T23:33:42.725Z,36.13
2023-02-09T23:36:16.358Z,34.07
2023-02-09T23:38:45.514Z,34.27
2023-02-09T23:41:15.300Z,37.10
2023-02-09T23:43:43.645Z,33.87
2023-02-09T23:46:14.446Z,33.83
2023-02-09T23:48:44.453Z,32.73
2023-02-09T23:51:18.125Z,36.50
2023-02-09T23:53:46.872Z,39.33
2023-02-09T23:56:15.988Z,32.77
2023-02-09T23:58:45.489Z,35.93
